Time;durP1;ratioP1;P1;durP2;ratioP2;P2;SDS_P1;SDS_P2;PMS_P1;PMS_P2;Temp;Humidity;BMP_temperature;BMP_pressure;BME280_temperature;BME280_humidity;BME280_pressure;Samples;Min_cycle;Max_cycle;Signal;HPM_P1;HPM_P2
2021/10/31 00:00:05;;;;;;;15.80;13.10;;;;;22.60;99575.00;;;;2079168;28;20228;-53
2021/10/31 00:01:05;;;;;;;14.27;12.80;;;;;22.50;99575.00;;;;2079022;28;20225;-52
2021/10/31 00:02:06;;;;;;;16.90;13.73;;;;;22.60;99581.00;;;;2078949;28;20841;-53
2021/10/31 00:03:06;;;;;;;14.00;12.63;;;;;22.50;99577.00;;;;2079392;28;20209;-54
2021/10/31 00:04:06;;;;;;;14.97;13.47;;;;;22.50;99571.00;;;;2079097;28;20233;-54
2021/10/31 00:05:08;;;;;;;12.97;11.77;;;;;22.60;99579.00;;;;2079745;28;20241;-53
2021/10/31 00:06:08;;;;;;;14.35;12.85;;;;;22.50;99573.00;;;;2079639;28;20217;-54
2021/10/31 00:07:09;;;;;;;13.77;12.47;;;;;22.50;99572.00;;;;2079605;28;20743;-53
2021/10/31 00:08:09;;;;;;;13.37;12.07;;;;;22.50;99581.00;;;;2079586;28;20213;-52
2021/10/31 00:09:09;;;;;;;14.07;12.67;;;;;22.50;99581.00;;;;2078590;28;20255;-52
2021/10/31 00:10:10;;;;;;;13.40;12.20;;;;;22.50;99583.00;;;;2078621;28;20287;-52
2021/10/31 00:11:10;;;;;;;13.70;12.40;;;;;22.50;99576.00;;;;2071789;28;20593;-55
2021/10/31 00:12:11;;;;;;;13.13;11.83;;;;;22.50;99585.00;;;;2071482;28;20246;-56
2021/10/31 00:13:12;;;;;;;13.03;11.87;;;;;22.50;99586.00;;;;2071570;28;20658;-55
2021/10/31 00:14:12;;;;;;;12.05;10.95;;;;;22.50;99584.00;;;;2073341;28;20682;-55
2021/10/31 00:15:13;;;;;;;13.60;12.20;;;;;22.50;99582.00;;;;2071636;28;20305;-55
2021/10/31 00:16:14;;;;;;;13.23;12.00;;;;;22.50;99592.00;;;;2072654;28;20221;-53
2021/10/31 00:17:14;;;;;;;12.07;10.88;;;;;22.50;99595.00;;;;2071625;28;20293;-54
2021/10/31 00:18:15;;;;;;;13.17;11.80;;;;;22.50;99595.00;;;;2070110;28;21252;-53
2021/10/31 00:19:15;;;;;;;12.17;11.00;;;;;22.50;99597.00;;;;2070364;28;20276;-53
2021/10/31 00:20:15;;;;;;;12.70;11.50;;;;;22.50;99588.00;;;;2071692;28;20754;-53
2021/10/31 00:21:16;;;;;;;12.60;11.50;;;;;22.50;99589.00;;;;2071663;28;20597;-52
2021/10/31 00:22:16;;;;;;;11.90;10.80;;;;;22.50;99592.00;;;;2071555;28;20268;-52
2021/10/31 00:23:17;;;;;;;12.70;10.53;;;;;22.50;99592.00;;;;2071358;28;20222;-54
2021/10/31 00:24:17;;;;;;;13.77;10.63;;;;;22.50;99590.00;;;;2071493;28;20225;-53
2021/10/31 00:25:17;;;;;;;10.93;9.93;;;;;22.50;99597.00;;;;2071775;28;20210;-52
2021/10/31 00:26:18;;;;;;;11.53;10.43;;;;;22.50;99595.00;;;;2071273;28;20221;-53
2021/10/31 00:27:18;;;;;;;10.83;9.87;;;;;22.50;99584.00;;;;2071493;28;20222;-52
2021/10/31 00:28:19;;;;;;;11.90;10.70;;;;;22.50;99587.00;;;;2071465;28;20218;-52
2021/10/31 00:29:19;;;;;;;10.80;9.70;;;;;22.50;99586.00;;;;2069704;28;20276;-54
2021/10/31 00:30:19;;;;;;;10.70;9.70;;;;;22.50;99589.00;;;;2071674;28;20340;-52
2021/10/31 00:31:20;;;;;;;11.20;10.00;;;;;22.50;99590.00;;;;2071593;28;20233;-53
2021/10/31 00:32:20;;;;;;;10.70;9.70;;;;;22.50;99598.00;;;;2071464;28;20293;-52
2021/10/31 00:33:21;;;;;;;10.20;9.20;;;;;22.50;99592.00;;;;2071512;28;20677;-55
2021/10/31 00:34:21;;;;;;;11.60;10.50;;;;;22.50;99590.00;;;;2071197;28;20221;-55
2021/10/31 00:35:22;;;;;;;10.17;9.23;;;;;22.50;99586.00;;;;2071608;28;20289;-54
2021/10/31 00:36:22;;;;;;;10.93;9.77;;;;;22.50;99586.00;;;;2071380;28;20222;-52
2021/10/31 00:37:23;;;;;;;10.97;9.87;;;;;22.50;99589.00;;;;2077079;28;20290;-52
2021/10/31 00:38:24;;;;;;;10.65;9.13;;;;;22.50;99591.00;;;;2079530;28;20768;-54
2021/10/31 00:39:25;;;;;;;11.15;9.95;;;;;22.50;99587.00;;;;2078153;28;20225;-53
2021/10/31 00:40:25;;;;;;;9.93;8.93;;;;;22.50;99594.00;;;;2078701;28;20240;-52
2021/10/31 00:41:26;;;;;;;9.50;8.67;;;;;22.50;99579.00;;;;2079500;28;20244;-54
2021/10/31 00:42:26;;;;;;;9.93;8.80;;;;;22.50;99589.00;;;;2079444;28;20301;-53
2021/10/31 00:43:26;;;;;;;10.10;9.10;;;;;22.50;99593.00;;;;2079481;28;20631;-52
2021/10/31 00:44:27;;;;;;;9.10;8.20;;;;;22.50;99594.00;;;;2073982;28;20225;-52
2021/10/31 00:45:27;;;;;;;10.33;9.40;;;;;22.50;99594.00;;;;2072649;28;20214;-52
2021/10/31 00:46:27;;;;;;;10.27;9.20;;;;;22.50;99595.00;;;;2072249;28;20222;-54
2021/10/31 00:47:28;;;;;;;9.77;8.80;;;;;22.50;99592.00;;;;2070607;28;21158;-53
2021/10/31 00:48:28;;;;;;;9.50;8.60;;;;;22.50;99592.00;;;;2071236;28;20210;-54
2021/10/31 00:49:29;;;;;;;8.70;7.90;;;;;22.50;99595.00;;;;2070093;28;20301;-53
2021/10/31 00:50:30;;;;;;;9.52;8.63;;;;;22.50;99596.00;;;;2071522;28;20301;-55
2021/10/31 00:51:30;;;;;;;10.17;9.17;;;;;22.50;99603.00;;;;2070161;28;20221;-56
2021/10/31 00:52:30;;;;;;;8.77;7.87;;;;;22.40;99595.00;;;;2070566;28;20601;-54
2021/10/31 00:53:31;;;;;;;8.83;7.93;;;;;22.40;99605.00;;;;2071120;28;20214;-54
2021/10/31 00:54:33;;;;;;;8.43;7.63;;;;;22.40;99602.00;;;;2070686;28;20218;-55
2021/10/31 00:55:34;;;;;;;9.30;7.90;;;;;22.40;99591.00;;;;2062474;28;21270;-54
2021/10/31 00:56:35;;;;;;;8.60;7.77;;;;;22.40;99602.00;;;;2062248;28;20305;-53
2021/10/31 00:57:36;;;;;;;8.00;7.03;;;;;22.40;99600.00;;;;2069896;28;20476;-52
2021/10/31 00:58:37;;;;;;;8.00;7.30;;;;;22.40;99608.00;;;;2070766;28;20679;-53
2021/10/31 00:59:37;;;;;;;8.48;7.60;;;;;22.40;99604.00;;;;2069688;28;20587;-52
2021/10/31 01:00:38;;;;;;;8.77;7.87;;;;;22.50;99605.00;;;;2071145;28;20215;-53
2021/10/31 01:01:38;;;;;;;8.63;7.90;;;;;22.50;99607.00;;;;2070750;28;20222;-54
2021/10/31 01:02:39;;;;;;;9.10;8.20;;;;;22.50;99610.00;;;;2071247;28;20214;-52
2021/10/31 01:03:40;;;;;;;7.87;7.20;;;;;22.40;99608.00;;;;2071034;28;20253;-52
2021/10/31 01:04:45;;;;;;;8.55;7.72;;;;;22.40;99607.00;;;;2071232;28;20214;-54
2021/10/31 01:05:48;;;;;;;7.65;6.95;;;;;22.40;99610.00;;;;2074860;28;20959;-52
2021/10/31 01:06:58;;;;;;;7.30;6.60;;;;;22.40;99605.00;;;;2071106;28;20210;-53
2021/10/31 01:08:23;;;;;;;7.80;6.55;;;;;22.40;99610.00;;;;2078767;28;20233;-54
2021/10/31 01:10:21;;;;;;;7.45;6.75;;;;;22.40;99599.00;;;;2077820;28;20209;-52
2021/10/31 01:11:34;;;;;;;7.38;6.53;;;;;22.40;99602.00;;;;2061328;28;20215;-52
2021/10/31 01:12:40;;;;;;;6.90;6.20;;;;;22.40;99605.00;;;;2060964;28;20401;-54
2021/10/31 01:14:11;;;;;;;7.35;6.40;;;;;22.40;99613.00;;;;2061205;28;20679;-53
2021/10/31 01:15:23;;;;;;;5.90;5.30;;;;;22.40;99611.00;;;;2060006;28;20214;-52
2021/10/31 01:16:41;;;;;;;6.43;5.82;;;;;22.40;99633.00;;;;2064077;28;20218;-53
2021/10/31 01:17:52;;;;;;;7.13;6.13;;;;;22.40;99602.00;;;;2074246;28;20213;-52
2021/10/31 01:19:20;;;;;;;6.50;5.90;;;;;22.40;99606.00;;;;2068362;28;20211;-51
2021/10/31 01:20:23;;;;;;;6.72;6.13;;;;;22.40;99610.00;;;;2074175;28;20225;-53
2021/10/31 01:21:55;;;;;;;6.97;6.38;;;;;22.40;99610.00;;;;2078728;28;20702;-52
2021/10/31 01:23:15;;;;;;;7.57;6.45;;;;;22.40;99611.00;;;;2057986;28;20219;-53
2021/10/31 01:24:18;;;;;;;6.20;5.60;;;;;22.40;99599.00;;;;2065354;28;20347;-54
2021/10/31 01:25:46;;;;;;;6.68;6.07;;;;;22.40;99607.00;;;;2075684;28;20220;-54
2021/10/31 01:27:03;;;;;;;6.55;5.90;;;;;22.40;99608.00;;;;2079110;28;20744;-54
2021/10/31 01:28:14;;;;;;;6.43;5.82;;;;;22.30;99597.00;;;;2070399;28;20240;-53
2021/10/31 01:29:32;;;;;;;5.80;5.20;;;;;22.30;99608.00;;;;2062865;28;20222;-53
2021/10/31 01:30:53;;;;;;;5.68;5.18;;;;;22.40;99602.00;;;;2078475;28;20697;-54
2021/10/31 01:32:05;;;;;;;6.47;5.50;;;;;22.30;99614.00;;;;2074184;28;20301;-55
2021/10/31 01:33:30;;;;;;;7.15;5.70;;;;;22.30;99616.00;;;;2076666;28;20217;-52
2021/10/31 01:34:34;;;;;;;6.82;6.13;;;;;22.30;99618.00;;;;2078831;28;20217;-52
2021/10/31 01:35:55;;;;;;;6.85;5.80;;;;;22.30;99604.00;;;;2078783;28;20217;-53
2021/10/31 01:37:14;;;;;;;6.05;5.45;;;;;22.30;99615.00;;;;2078214;28;20213;-53
2021/10/31 01:38:23;;;;;;;6.30;5.70;;;;;22.30;99614.00;;;;2073950;28;20210;-52
2021/10/31 01:39:27;;;;;;;5.30;4.85;;;;;22.30;99610.00;;;;2070008;28;20698;-53
2021/10/31 01:41:03;;;;;;;5.18;4.78;;;;;22.30;99610.00;;;;2070697;28;20233;-54
2021/10/31 01:42:15;;;;;;;5.60;4.97;;;;;22.30;99606.00;;;;2078585;28;20747;-55
2021/10/31 01:43:52;;;;;;;5.28;4.78;;;;;22.30;99612.00;;;;2078845;28;20289;-55
2021/10/31 01:45:02;;;;;;;5.35;4.88;;;;;22.30;99612.00;;;;2074422;28;20271;-55
2021/10/31 01:46:10;;;;;;;5.10;4.70;;;;;22.30;99610.00;;;;2071687;28;20210;-52
2021/10/31 01:47:22;;;;;;;5.00;4.53;;;;;22.30;99611.00;;;;2070250;28;20209;-53
2021/10/31 01:48:30;;;;;;;4.90;4.50;;;;;22.30;99616.00;;;;2070401;28;20211;-53
2021/10/31 01:49:53;;;;;;;5.30;4.80;;;;;22.30;99622.00;;;;2068776;28;20717;-52
2021/10/31 01:50:56;;;;;;;5.75;4.90;;;;;22.30;99620.00;;;;2076187;28;20559;-55
2021/10/31 01:51:59;;;;;;;5.20;4.70;;;;;22.30;99621.00;;;;2065856;28;20691;-54
2021/10/31 01:53:23;;;;;;;5.10;4.70;;;;;22.30;99623.00;;;;2071929;28;20225;-52
2021/10/31 01:54:44;;;;;;;5.22;4.72;;;;;22.30;99608.00;;;;2064421;28;20210;-54
2021/10/31 01:55:48;;;;;;;4.68;4.28;;;;;22.30;99634.00;;;;2067098;28;20217;-55
2021/10/31 01:56:50;;;;;;;4.80;4.40;;;;;22.30;99623.00;;;;2070083;28;20207;-54
2021/10/31 01:57:53;;;;;;;4.63;4.22;;;;;22.30;99619.00;;;;2070044;28;20272;-54
2021/10/31 01:59:06;;;;;;;4.80;4.40;;;;;22.30;99627.00;;;;2061077;28;20215;-53
2021/10/31 02:00:12;;;;;;;5.13;4.63;;;;;22.30;99622.00;;;;2060417;28;20249;-52
2021/10/31 02:01:14;;;;;;;4.63;4.03;;;;;22.30;99611.00;;;;2062986;28;20219;-53
2021/10/31 02:02:14;;;;;;;4.35;3.95;;;;;22.30;99616.00;;;;2070497;28;20206;-53
2021/10/31 02:03:16;;;;;;;4.63;4.17;;;;;22.30;99623.00;;;;2069797;28;20221;-53
2021/10/31 02:04:17;;;;;;;4.18;3.78;;;;;22.30;99618.00;;;;2077823;28;20222;-52
2021/10/31 02:05:20;;;;;;;4.47;4.07;;;;;22.30;99627.00;;;;2078302;28;20218;-52
2021/10/31 02:06:20;;;;;;;4.80;4.22;;;;;22.30;99628.00;;;;2070581;28;20222;-55
2021/10/31 02:07:21;;;;;;;4.27;3.87;;;;;22.30;99632.00;;;;2070212;28;20288;-55
2021/10/31 02:08:22;;;;;;;4.40;4.00;;;;;22.30;99642.00;;;;2078295;28;20829;-54
2021/10/31 02:09:23;;;;;;;4.93;4.43;;;;;22.30;99634.00;;;;2076788;28;20289;-54
2021/10/31 02:10:23;;;;;;;4.07;3.67;;;;;22.30;99644.00;;;;2070205;28;20813;-53
2021/10/31 02:11:24;;;;;;;4.17;3.77;;;;;22.30;99635.00;;;;2070034;28;20260;-53
2021/10/31 02:12:24;;;;;;;4.40;4.00;;;;;22.30;99641.00;;;;2069851;28;20269;-54
2021/10/31 02:13:25;;;;;;;3.47;3.17;;;;;22.30;99636.00;;;;2078212;28;20300;-53
2021/10/31 02:14:26;;;;;;;4.18;3.78;;;;;22.30;99642.00;;;;2069822;28;20217;-52
2021/10/31 02:15:26;;;;;;;4.70;4.20;;;;;22.30;99637.00;;;;2069913;28;20211;-54
2021/10/31 02:16:27;;;;;;;4.03;3.63;;;;;22.30;99634.00;;;;2077819;28;20717;-53
2021/10/31 02:17:27;;;;;;;4.13;3.73;;;;;22.20;99639.00;;;;2071441;28;20218;-52
2021/10/31 02:18:27;;;;;;;3.73;3.43;;;;;22.20;99634.00;;;;2061624;28;20726;-52
2021/10/31 02:19:35;;;;;;;3.50;3.20;;;;;22.20;99642.00;;;;2060783;28;20214;-53
2021/10/31 02:20:38;;;;;;;3.40;3.10;;;;;22.30;99648.00;;;;2074042;28;20292;-52
2021/10/31 02:21:40;;;;;;;3.85;3.45;;;;;22.30;99644.00;;;;2072768;28;20222;-52
2021/10/31 02:22:41;;;;;;;4.40;4.00;;;;;22.30;99650.00;;;;2072428;28;20224;-52
2021/10/31 02:23:42;;;;;;;3.63;3.30;;;;;22.30;99650.00;;;;2062619;28;20404;-51
2021/10/31 02:24:42;;;;;;;3.97;3.20;;;;;22.30;99649.00;;;;2057865;28;20256;-53
2021/10/31 02:25:43;;;;;;;4.23;3.83;;;;;22.30;99642.00;;;;2078224;28;20224;-54
2021/10/31 02:26:44;;;;;;;5.07;3.57;;;;;22.20;99647.00;;;;2075565;28;20275;-54
2021/10/31 02:27:45;;;;;;;3.80;3.43;;;;;22.20;99651.00;;;;2082886;28;20213;-52
2021/10/31 02:28:55;;;;;;;3.47;3.17;;;;;22.20;99651.00;;;;2075193;28;20507;-54
2021/10/31 02:29:56;;;;;;;3.90;3.30;;;;;22.20;99646.00;;;;2077215;28;20205;-53
2021/10/31 02:30:57;;;;;;;4.25;3.85;;;;;22.20;99642.00;;;;2078497;28;20226;-52
2021/10/31 02:31:57;;;;;;;3.70;3.40;;;;;22.20;99647.00;;;;2078217;28;20570;-53
2021/10/31 02:32:57;;;;;;;3.87;3.53;;;;;22.20;99644.00;;;;2078345;28;20228;-52
2021/10/31 02:33:58;;;;;;;3.87;3.47;;;;;22.20;99644.00;;;;2078040;28;20263;-52
2021/10/31 02:34:58;;;;;;;3.47;3.03;;;;;22.20;99649.00;;;;2078105;28;20209;-52
2021/10/31 02:35:59;;;;;;;3.70;2.87;;;;;22.20;99643.00;;;;2077543;28;20221;-52
2021/10/31 02:36:59;;;;;;;3.23;2.93;;;;;22.20;99640.00;;;;2077378;28;20344;-54
2021/10/31 02:37:59;;;;;;;3.97;3.67;;;;;22.20;99648.00;;;;2077582;28;21210;-53
2021/10/31 02:39:02;;;;;;;4.17;3.17;;;;;22.20;99647.00;;;;2076518;28;20954;-53
2021/10/31 02:40:03;;;;;;;3.40;3.10;;;;;22.20;99640.00;;;;2078006;28;20214;-54
2021/10/31 02:41:03;;;;;;;4.85;3.40;;;;;22.20;99646.00;;;;2078259;28;20732;-54
2021/10/31 02:42:04;;;;;;;3.53;2.87;;;;;22.20;99650.00;;;;2078146;28;20198;-54
2021/10/31 02:43:05;;;;;;;3.70;3.17;;;;;22.20;99649.00;;;;2077796;28;20218;-52
2021/10/31 02:44:05;;;;;;;3.93;3.60;;;;;22.20;99643.00;;;;2078016;28;20444;-52
2021/10/31 02:45:06;;;;;;;4.40;2.47;;;;;22.20;99650.00;;;;2077868;28;20244;-55
2021/10/31 02:46:07;;;;;;;3.20;2.90;;;;;22.20;99650.00;;;;2077890;28;20213;-52
2021/10/31 02:47:08;;;;;;;3.37;2.90;;;;;22.20;99652.00;;;;2077988;28;20289;-52
2021/10/31 02:48:10;;;;;;;3.15;2.85;;;;;22.20;99647.00;;;;2076497;28;20229;-53
2021/10/31 02:49:11;;;;;;;3.55;2.78;;;;;22.20;99647.00;;;;2076264;28;20209;-53
2021/10/31 02:50:14;;;;;;;3.60;3.30;;;;;22.20;99647.00;;;;2078084;28;20266;-53
2021/10/31 02:51:26;;;;;;;3.72;2.67;;;;;22.20;99650.00;;;;2065137;28;20563;-53
2021/10/31 02:52:29;;;;;;;3.40;3.10;;;;;22.20;99657.00;;;;2066538;28;20225;-52
2021/10/31 02:53:37;;;;;;;3.42;3.13;;;;;22.20;99653.00;;;;2070791;28;20206;-55
2021/10/31 02:54:40;;;;;;;2.88;2.67;;;;;22.20;99649.00;;;;2069384;28;20226;-53
2021/10/31 02:56:02;;;;;;;2.78;2.58;;;;;22.20;99654.00;;;;2070057;28;20695;-52
2021/10/31 02:57:28;;;;;;;3.30;3.00;;;;;22.20;99649.00;;;;2070421;28;20226;-54
2021/10/31 02:58:34;;;;;;;3.30;3.00;;;;;22.20;99645.00;;;;2076614;28;20717;-55
2021/10/31 02:59:40;;;;;;;3.30;2.88;;;;;22.20;99647.00;;;;2076774;28;20225;-53
2021/10/31 03:00:40;;;;;;;3.08;2.78;;;;;22.20;99651.00;;;;2078478;28;20585;-55
2021/10/31 03:01:40;;;;;;;3.33;3.03;;;;;22.20;99652.00;;;;2078360;28;20217;-53
2021/10/31 03:02:41;;;;;;;3.27;2.93;;;;;22.10;99652.00;;;;2077784;28;20221;-55
2021/10/31 03:03:41;;;;;;;2.97;2.73;;;;;22.20;99645.00;;;;2070976;28;20226;-53
2021/10/31 03:04:42;;;;;;;2.93;2.63;;;;;22.20;99650.00;;;;2071422;28;20218;-52
2021/10/31 03:05:47;;;;;;;2.73;2.47;;;;;22.20;99650.00;;;;2071460;28;20234;-55
2021/10/31 03:06:47;;;;;;;3.08;2.78;;;;;22.20;99654.00;;;;2070951;28;20275;-52
2021/10/31 03:07:48;;;;;;;3.33;2.77;;;;;22.20;99651.00;;;;2079448;28;20690;-52
2021/10/31 03:08:48;;;;;;;3.23;2.93;;;;;22.20;99643.00;;;;2072733;28;20570;-51
2021/10/31 03:09:48;;;;;;;3.00;2.70;;;;;22.20;99648.00;;;;2078197;28;20773;-54
2021/10/31 03:10:53;;;;;;;2.53;2.20;;;;;22.10;99647.00;;;;2079898;28;20214;-56
2021/10/31 03:12:04;;;;;;;3.42;2.50;;;;;22.20;99647.00;;;;2071707;28;20217;-53
2021/10/31 03:13:05;;;;;;;3.17;2.90;;;;;22.10;99643.00;;;;2071892;28;20261;-54
2021/10/31 03:14:05;;;;;;;2.87;2.67;;;;;22.20;99648.00;;;;2072227;28;20198;-52
2021/10/31 03:15:06;;;;;;;3.73;3.00;;;;;22.20;99643.00;;;;2071809;28;20206;-52
2021/10/31 03:16:06;;;;;;;3.10;2.80;;;;;22.10;99647.00;;;;2072146;28;20214;-52
2021/10/31 03:17:07;;;;;;;3.43;2.50;;;;;22.10;99645.00;;;;2071834;28;20460;-53
2021/10/31 03:18:07;;;;;;;3.77;2.90;;;;;22.20;99644.00;;;;2071859;28;20237;-53
2021/10/31 03:19:08;;;;;;;2.83;2.63;;;;;22.10;99649.00;;;;2070966;28;21384;-52
2021/10/31 03:20:08;;;;;;;3.33;2.50;;;;;22.10;99644.00;;;;2073156;28;20217;-52
2021/10/31 03:21:09;;;;;;;2.90;2.40;;;;;22.10;99648.00;;;;2076577;28;20206;-54
2021/10/31 03:22:09;;;;;;;2.60;2.40;;;;;22.10;99647.00;;;;2073771;28;20213;-52
2021/10/31 03:23:09;;;;;;;2.97;2.67;;;;;22.20;99637.00;;;;2072952;28;21020;-53
2021/10/31 03:24:10;;;;;;;2.40;2.20;;;;;22.10;99641.00;;;;2071946;28;20222;-52
2021/10/31 03:25:10;;;;;;;2.70;2.50;;;;;22.10;99643.00;;;;2071986;28;20835;-52
2021/10/31 03:26:11;;;;;;;2.97;2.67;;;;;22.10;99638.00;;;;2076155;28;20217;-55
2021/10/31 03:27:11;;;;;;;2.77;2.40;;;;;22.10;99637.00;;;;2080191;28;20225;-54
2021/10/31 03:28:11;;;;;;;2.67;2.20;;;;;22.10;99633.00;;;;2079937;28;20784;-54
2021/10/31 03:29:12;;;;;;;3.13;2.43;;;;;22.10;99631.00;;;;2078310;28;20212;-54
2021/10/31 03:30:12;;;;;;;2.83;2.43;;;;;22.10;99635.00;;;;2080140;28;21234;-52
2021/10/31 03:31:13;;;;;;;2.80;2.50;;;;;22.10;99641.00;;;;2079134;28;20218;-55
2021/10/31 03:32:13;;;;;;;2.67;2.40;;;;;22.10;99634.00;;;;2079466;28;20285;-54
2021/10/31 03:33:14;;;;;;;2.50;2.17;;;;;22.10;99634.00;;;;2076455;28;20264;-52
2021/10/31 03:34:15;;;;;;;2.42;2.22;;;;;21.90;99633.00;;;;2071344;28;20230;-52
2021/10/31 03:35:15;;;;;;;4.37;2.20;;;;;22.10;99638.00;;;;2069252;28;20203;-54
2021/10/31 03:36:15;;;;;;;3.83;2.10;;;;;22.10;99634.00;;;;2070785;28;20221;-53
2021/10/31 03:37:16;;;;;;;2.80;2.40;;;;;22.10;99631.00;;;;2071357;28;20218;-52
2021/10/31 03:38:16;;;;;;;2.27;2.07;;;;;22.10;99628.00;;;;2071328;28;20758;-54
2021/10/31 03:39:17;;;;;;;2.57;2.30;;;;;22.10;99621.00;;;;2070192;28;20243;-54
2021/10/31 03:40:17;;;;;;;2.53;2.30;;;;;22.10;99625.00;;;;2071378;28;20578;-54
2021/10/31 03:41:17;;;;;;;2.80;2.40;;;;;22.10;99625.00;;;;2071349;28;20753;-53
2021/10/31 03:42:18;;;;;;;2.57;2.33;;;;;22.10;99636.00;;;;2071331;28;20218;-52
2021/10/31 03:43:20;;;;;;;2.57;2.37;;;;;22.10;99625.00;;;;2071172;28;20297;-52
2021/10/31 03:44:21;;;;;;;2.60;2.40;;;;;22.10;99628.00;;;;2071017;28;20300;-55
2021/10/31 03:45:22;;;;;;;2.35;2.15;;;;;22.10;99631.00;;;;2070727;28;20230;-53
2021/10/31 03:46:22;;;;;;;2.50;2.30;;;;;22.10;99624.00;;;;2071363;28;20210;-53
2021/10/31 03:47:25;;;;;;;2.30;2.00;;;;;22.10;99629.00;;;;2071965;28;20326;-52
2021/10/31 03:48:25;;;;;;;2.58;2.38;;;;;22.10;99629.00;;;;2071402;28;20207;-54
2021/10/31 03:49:26;;;;;;;2.80;2.50;;;;;22.10;99629.00;;;;2070543;28;20283;-53
2021/10/31 03:50:26;;;;;;;4.10;1.97;;;;;22.10;99630.00;;;;2075444;28;20259;-54
2021/10/31 03:51:26;;;;;;;2.13;1.90;;;;;22.10;99628.00;;;;2074221;28;20262;-53
2021/10/31 03:52:27;;;;;;;3.70;2.50;;;;;22.10;99631.00;;;;2073702;28;20229;-52
2021/10/31 03:53:27;;;;;;;2.47;2.27;;;;;22.10;99622.00;;;;2073137;28;20290;-53
2021/10/31 03:54:27;;;;;;;3.00;2.80;;;;;22.10;99625.00;;;;2077794;28;20609;-53
2021/10/31 03:55:28;;;;;;;2.70;2.30;;;;;22.10;99626.00;;;;2079710;28;20216;-53
2021/10/31 03:56:28;;;;;;;2.70;2.50;;;;;22.10;99621.00;;;;2078932;28;20210;-53
2021/10/31 03:57:29;;;;;;;2.60;2.40;;;;;22.10;99636.00;;;;2078469;28;20210;-52
2021/10/31 03:58:29;;;;;;;2.37;1.93;;;;;22.10;99626.00;;;;2079766;28;20875;-52
2021/10/31 03:59:29;;;;;;;2.87;2.30;;;;;22.10;99627.00;;;;2078133;28;20209;-52
2021/10/31 04:00:30;;;;;;;2.93;2.10;;;;;22.00;99621.00;;;;2079543;28;20209;-53
2021/10/31 04:01:32;;;;;;;2.87;2.60;;;;;22.00;99620.00;;;;2079727;28;20218;-54
2021/10/31 04:02:32;;;;;;;2.33;2.10;;;;;22.00;99632.00;;;;2079910;28;20209;-53
2021/10/31 04:03:33;;;;;;;2.00;1.80;;;;;22.10;99628.00;;;;2079874;28;20251;-55
2021/10/31 04:04:33;;;;;;;2.50;1.73;;;;;22.10;99623.00;;;;2079040;28;20567;-55
2021/10/31 04:05:33;;;;;;;2.77;2.33;;;;;22.00;99632.00;;;;2072472;28;20209;-53
2021/10/31 04:06:34;;;;;;;3.10;2.17;;;;;22.00;99626.00;;;;2071755;28;20261;-54
2021/10/31 04:07:34;;;;;;;2.00;1.90;;;;;22.00;99632.00;;;;2075011;28;20321;-54
2021/10/31 04:08:34;;;;;;;2.50;2.13;;;;;22.10;99630.00;;;;2071561;28;20301;-52
2021/10/31 04:09:36;;;;;;;2.30;2.10;;;;;22.10;99630.00;;;;2070647;28;20214;-54
2021/10/31 04:10:36;;;;;;;3.78;2.40;;;;;22.10;99637.00;;;;2071559;28;20296;-54
2021/10/31 04:11:37;;;;;;;2.43;2.23;;;;;22.10;99629.00;;;;2073880;28;20606;-54
2021/10/31 04:12:37;;;;;;;3.50;2.07;;;;;22.10;99630.00;;;;2079468;28;20228;-53
2021/10/31 04:13:37;;;;;;;2.43;2.07;;;;;22.10;99629.00;;;;2079737;28;20213;-53
2021/10/31 04:14:38;;;;;;;3.93;2.00;;;;;22.10;99631.00;;;;2078468;28;20305;-52
2021/10/31 04:15:40;;;;;;;2.30;2.10;;;;;22.00;99633.00;;;;2079017;28;20296;-54
2021/10/31 04:16:41;;;;;;;2.13;1.92;;;;;22.10;99634.00;;;;2079812;28;20213;-55
2021/10/31 04:17:41;;;;;;;3.20;2.47;;;;;22.10;99633.00;;;;2079572;28;20574;-53
2021/10/31 04:18:41;;;;;;;2.70;2.10;;;;;22.00;99629.00;;;;2079024;28;20217;-53
2021/10/31 04:19:42;;;;;;;2.80;2.23;;;;;22.00;99632.00;;;;2077871;28;20237;-52
2021/10/31 04:20:42;;;;;;;2.30;2.10;;;;;22.00;99629.00;;;;2079285;28;20221;-53
2021/10/31 04:21:42;;;;;;;3.37;2.03;;;;;22.00;99633.00;;;;2079630;28;20599;-52
2021/10/31 04:22:45;;;;;;;3.00;2.30;;;;;22.00;99631.00;;;;2079732;28;20232;-54
2021/10/31 04:23:45;;;;;;;2.10;1.90;;;;;22.00;99563.00;;;;2079400;28;20210;-53
2021/10/31 04:24:45;;;;;;;3.37;2.40;;;;;22.00;99628.00;;;;2079701;28;20563;-53
2021/10/31 04:25:46;;;;;;;2.53;2.30;;;;;22.00;99628.00;;;;2079467;28;20677;-52
2021/10/31 04:26:46;;;;;;;2.20;2.00;;;;;22.00;99619.00;;;;2079754;28;20605;-53
2021/10/31 04:27:46;;;;;;;3.07;2.20;;;;;21.90;99624.00;;;;2079729;28;20214;-53
2021/10/31 04:28:47;;;;;;;2.60;1.93;;;;;22.00;99624.00;;;;2078306;28;20220;-54
2021/10/31 04:29:47;;;;;;;3.07;2.10;;;;;22.00;99620.00;;;;2078194;28;20228;-52
2021/10/31 04:30:47;;;;;;;2.07;1.70;;;;;22.00;99614.00;;;;2078985;28;20216;-53
2021/10/31 04:31:48;;;;;;;1.97;1.80;;;;;22.00;99617.00;;;;2079030;28;20356;-52
2021/10/31 04:32:48;;;;;;;3.03;1.70;;;;;22.00;99627.00;;;;2079001;28;20214;-53
2021/10/31 04:33:48;;;;;;;4.00;2.10;;;;;22.00;99617.00;;;;2077825;28;20205;-52
2021/10/31 04:34:49;;;;;;;2.17;1.97;;;;;22.00;99633.00;;;;2071468;28;20213;-53
2021/10/31 04:35:49;;;;;;;2.07;1.87;;;;;22.00;99626.00;;;;2070969;28;20229;-53
2021/10/31 04:36:50;;;;;;;2.37;2.17;;;;;22.00;99611.00;;;;2072969;28;20630;-53
2021/10/31 04:37:54;;;;;;;2.17;1.80;;;;;22.00;99617.00;;;;2072531;28;20226;-52
2021/10/31 04:38:56;;;;;;;2.50;1.80;;;;;22.00;99621.00;;;;2069465;28;20221;-51
2021/10/31 04:39:58;;;;;;;3.67;2.00;;;;;22.00;99615.00;;;;2070960;28;20214;-53
2021/10/31 04:40:58;;;;;;;2.45;1.95;;;;;22.00;99612.00;;;;2070800;28;20218;-52
2021/10/31 04:42:05;;;;;;;2.37;1.87;;;;;22.00;99617.00;;;;2070915;28;20292;-52
2021/10/31 04:43:10;;;;;;;2.42;1.83;;;;;22.00;99614.00;;;;2070827;28;20216;-52
2021/10/31 04:44:10;;;;;;;2.08;1.80;;;;;22.00;99613.00;;;;2070540;28;20225;-52
2021/10/31 04:45:11;;;;;;;2.37;1.70;;;;;22.00;99616.00;;;;2070229;28;20214;-52
2021/10/31 04:46:11;;;;;;;3.67;1.80;;;;;22.00;99618.00;;;;2071740;28;20222;-54
2021/10/31 04:47:11;;;;;;;2.40;1.93;;;;;22.00;99613.00;;;;2078881;28;20209;-55
2021/10/31 04:48:12;;;;;;;1.93;1.80;;;;;22.00;99611.00;;;;2078453;28;20586;-53
2021/10/31 04:49:12;;;;;;;2.53;1.70;;;;;22.00;99610.00;;;;2075518;28;20271;-52
2021/10/31 04:50:13;;;;;;;2.43;1.80;;;;;22.00;99610.00;;;;2079246;28;20850;-55
2021/10/31 04:51:13;;;;;;;2.03;1.80;;;;;22.00;99607.00;;;;2079476;28;20296;-53
2021/10/31 04:52:14;;;;;;;1.97;1.80;;;;;22.00;99607.00;;;;2079627;28;20213;-55
2021/10/31 04:53:14;;;;;;;1.90;1.70;;;;;22.00;99608.00;;;;2079354;28;20241;-54
2021/10/31 04:54:15;;;;;;;2.00;1.80;;;;;22.00;99612.00;;;;2075666;28;20517;-54
2021/10/31 04:55:15;;;;;;;2.20;2.00;;;;;22.00;99618.00;;;;2079420;28;20216;-53
2021/10/31 04:56:16;;;;;;;2.20;1.60;;;;;22.00;99610.00;;;;2079219;28;20217;-54
2021/10/31 04:57:17;;;;;;;2.70;1.35;;;;;22.00;99607.00;;;;2079425;28;20202;-52
2021/10/31 04:58:17;;;;;;;2.30;1.60;;;;;22.00;99610.00;;;;2078955;28;20213;-52
2021/10/31 04:59:17;;;;;;;1.50;1.40;;;;;22.00;99611.00;;;;2078394;28;20206;-51
2021/10/31 05:00:18;;;;;;;1.67;1.57;;;;;22.00;99611.00;;;;2079116;28;20557;-53
2021/10/31 05:01:19;;;;;;;1.90;1.70;;;;;22.00;99607.00;;;;2079224;28;20209;-54
2021/10/31 05:02:20;;;;;;;2.50;2.30;;;;;21.90;99597.00;;;;2078943;28;20269;-53
2021/10/31 05:03:20;;;;;;;1.50;1.40;;;;;22.00;99600.00;;;;2078286;28;20221;-54
2021/10/31 05:04:21;;;;;;;2.70;1.90;;;;;22.00;99603.00;;;;2075316;28;20225;-54
2021/10/31 05:05:22;;;;;;;2.40;1.90;;;;;22.00;99602.00;;;;2073493;28;20216;-53
2021/10/31 05:06:22;;;;;;;2.40;1.57;;;;;22.00;99608.00;;;;2071060;28;20812;-54
2021/10/31 05:07:23;;;;;;;1.80;1.63;;;;;22.00;99604.00;;;;2074369;28;20217;-53
2021/10/31 05:08:23;;;;;;;1.53;1.40;;;;;22.00;99608.00;;;;2070978;28;20285;-52
2021/10/31 05:09:23;;;;;;;1.90;1.70;;;;;22.00;99599.00;;;;2070037;28;20217;-52
2021/10/31 05:10:25;;;;;;;2.10;1.83;;;;;22.00;99611.00;;;;2071187;28;20215;-52
2021/10/31 05:11:25;;;;;;;1.73;1.50;;;;;22.00;99602.00;;;;2070830;28;20210;-52
2021/10/31 05:12:27;;;;;;;1.63;1.53;;;;;22.00;99593.00;;;;2070953;28;20305;-52
2021/10/31 05:13:27;;;;;;;2.00;1.60;;;;;22.00;99594.00;;;;2070949;28;20221;-52
2021/10/31 05:14:27;;;;;;;2.00;1.80;;;;;22.00;99587.00;;;;2071119;28;20317;-52
2021/10/31 05:15:28;;;;;;;2.43;1.80;;;;;22.00;99595.00;;;;2070856;28;20726;-52